createdAt,value
2023-10-25T00:01:57.464Z,20.33
2023-10-25T00:04:25.878Z,18.73
2023-10-25T00:06:53.683Z,18.90
2023-10-25T00:09:21.808Z,18.63
2023-10-25T00:11:49.410Z,19.10
2023-10-25T00:14:17.232Z,18.92
2023-10-25T00:16:44.924Z,18.60
2023-10-25T00:19:13.175Z,19.73
2023-10-25T00:21:40.817Z,18.45
2023-10-25T00:24:09.096Z,18.23
2023-10-25T00:26:36.828Z,19.55
2023-10-25T00:29:05.036Z,18.92
2023-10-25T00:31:32.706Z,20.08
2023-10-25T00:34:00.656Z,19.27
2023-10-25T00:36:30.245Z,19.55
2023-10-25T00:38:58.085Z,18.25
2023-10-25T00:41:25.665Z,19.02
2023-10-25T00:43:53.517Z,18.42
2023-10-25T00:46:25.241Z,19.13
2023-10-25T00:48:56.570Z,19.50
2023-10-25T00:51:24.705Z,20.30
2023-10-25T00:53:54.057Z,19.30
2023-10-25T00:56:22.948Z,19.48
2023-10-25T00:58:51.558Z,19.63
2023-10-25T01:01:20.625Z,19.20
2023-10-25T01:03:48.698Z,19.92
2023-10-25T01:06:17.188Z,18.73
2023-10-25T01:08:45.371Z,19.30
2023-10-25T01:11:13.326Z,19.15
2023-10-25T01:13:41.984Z,19.92
2023-10-25T01:16:09.888Z,19.05
2023-10-25T01:18:38.296Z,19.60
2023-10-25T01:21:06.877Z,20.80
2023-10-25T01:23:34.838Z,19.15
2023-10-25T01:26:02.461Z,20.45
2023-10-25T01:28:30.277Z,20.80
2023-10-25T01:30:57.913Z,19.80
2023-10-25T01:33:25.759Z,19.92
2023-10-25T01:35:53.451Z,20.02
2023-10-25T01:38:21.341Z,20.38
2023-10-25T01:40:48.892Z,19.80
2023-10-25T01:43:16.883Z,20.95
2023-10-25T01:45:44.551Z,20.55
2023-10-25T01:48:12.841Z,20.92
2023-10-25T01:50:40.428Z,20.05
2023-10-25T01:53:08.633Z,20.05
2023-10-25T01:55:41.229Z,20.27
2023-10-25T01:58:09.634Z,20.25
2023-10-25T02:00:39.950Z,21.08
2023-10-25T02:03:08.254Z,21.15
2023-10-25T02:05:36.459Z,20.35
2023-10-25T02:08:04.369Z,19.95
2023-10-25T02:10:31.978Z,21.48
2023-10-25T02:12:59.898Z,20.27
2023-10-25T02:15:27.820Z,21.73
2023-10-25T02:17:56.099Z,20.92
2023-10-25T02:20:24.408Z,21.67
2023-10-25T02:22:52.201Z,22.80
2023-10-25T02:25:19.855Z,22.08
2023-10-25T02:27:47.872Z,21.98
2023-10-25T02:30:15.447Z,22.33
2023-10-25T02:32:43.310Z,23.25
2023-10-25T02:35:10.900Z,23.33
2023-10-25T02:37:38.726Z,23.42
2023-10-25T02:40:07.037Z,23.38
2023-10-25T02:42:36.479Z,22.38
2023-10-25T02:45:04.366Z,22.92
2023-10-25T02:47:32.572Z,23.00
2023-10-25T02:50:00.207Z,22.73
2023-10-25T02:52:28.055Z,22.70
2023-10-25T02:54:56.619Z,23.20
2023-10-25T02:57:24.636Z,22.88
2023-10-25T02:59:52.899Z,22.20
2023-10-25T03:02:21.302Z,23.05
2023-10-25T03:04:49.683Z,23.90
2023-10-25T03:07:17.581Z,24.15
2023-10-25T03:09:45.416Z,24.27
2023-10-25T03:12:13.484Z,24.20
2023-10-25T03:14:41.382Z,24.55
2023-10-25T03:17:09.186Z,23.92
2023-10-25T03:19:36.804Z,23.58
2023-10-25T03:22:07.791Z,23.35
2023-10-25T03:24:35.491Z,22.67
2023-10-25T03:27:03.331Z,24.08
2023-10-25T03:29:31.021Z,23.90
2023-10-25T03:31:59.665Z,24.13
2023-10-25T03:34:27.257Z,23.30
2023-10-25T03:36:55.419Z,24.73
2023-10-25T03:39:23.210Z,24.40
2023-10-25T03:41:51.050Z,23.60
2023-10-25T03:44:18.693Z,25.60
2023-10-25T03:46:46.692Z,24.83
2023-10-25T03:49:14.371Z,23.92
2023-10-25T03:51:42.209Z,25.02
2023-10-25T03:54:09.822Z,24.88
2023-10-25T03:56:37.770Z,24.55
2023-10-25T03:59:05.314Z,24.52
2023-10-25T04:01:33.206Z,25.00
2023-10-25T04:04:00.948Z,24.35
2023-10-25T04:06:28.928Z,24.67
2023-10-25T04:08:56.485Z,25.13
2023-10-25T04:11:24.399Z,24.58
2023-10-25T04:13:52.049Z,25.73
2023-10-25T04:16:19.952Z,24.75
2023-10-25T04:18:47.550Z,26.17
2023-10-25T04:21:15.795Z,23.20
2023-10-25T04:23:43.545Z,24.42
2023-10-25T04:26:12.214Z,24.27
2023-10-25T04:28:40.896Z,23.80
2023-10-25T04:31:09.230Z,24.60
2023-10-25T04:33:38.166Z,25.88
2023-10-25T04:36:06.664Z,25.13
2023-10-25T04:38:34.379Z,24.92
2023-10-25T04:41:02.785Z,25.17
2023-10-25T04:43:31.770Z,24.92
2023-10-25T04:46:00.317Z,25.88
2023-10-25T04:48:27.930Z,24.00
2023-10-25T04:50:55.816Z,24.75
2023-10-25T04:53:23.339Z,25.45
2023-10-25T04:55:51.197Z,24.25
2023-10-25T04:58:20.343Z,24.75
2023-10-25T05:00:48.666Z,24.88
2023-10-25T05:03:16.389Z,25.35
2023-10-25T05:05:44.511Z,26.55
2023-10-25T05:08:12.511Z,24.95
2023-10-25T05:10:40.655Z,25.20
2023-10-25T05:13:08.518Z,26.63
2023-10-25T05:15:37.353Z,25.45
2023-10-25T05:18:05.246Z,24.35
2023-10-25T05:20:33.407Z,25.67
2023-10-25T05:23:04.764Z,25.17
2023-10-25T05:25:32.966Z,25.65
2023-10-25T05:28:02.494Z,25.10
2023-10-25T05:30:30.632Z,25.60
2023-10-25T05:33:02.596Z,24.35
2023-10-25T05:35:30.790Z,23.80
2023-10-25T05:37:58.807Z,25.50
2023-10-25T05:40:26.783Z,30.80
2023-10-25T05:42:56.481Z,48.90
2023-10-25T05:45:24.391Z,55.08
2023-10-25T05:47:52.203Z,55.00
2023-10-25T05:50:20.422Z,45.92
2023-10-25T05:52:48.098Z,37.30
2023-10-25T05:55:16.998Z,31.10
2023-10-25T05:57:47.202Z,28.17
2023-10-25T06:00:15.512Z,28.17
2023-10-25T06:02:44.601Z,24.80
2023-10-25T06:05:14.317Z,24.27
2023-10-25T06:07:42.640Z,25.13
2023-10-25T06:10:10.967Z,23.23
2023-10-25T06:12:40.875Z,21.95
2023-10-25T06:15:09.285Z,21.30
2023-10-25T06:17:36.981Z,22.50
2023-10-25T06:20:05.776Z,21.40
2023-10-25T06:22:33.414Z,21.98
2023-10-25T06:25:01.438Z,18.95
2023-10-25T06:27:29.635Z,20.35
2023-10-25T06:29:57.826Z,20.65
2023-10-25T06:32:25.607Z,20.88
2023-10-25T06:34:53.482Z,20.08
2023-10-25T06:37:21.188Z,19.42
2023-10-25T06:39:49.137Z,18.85
2023-10-25T06:42:16.936Z,19.35
2023-10-25T06:44:45.279Z,16.52
2023-10-25T06:47:13.112Z,17.55
2023-10-25T06:49:41.142Z,17.88
2023-10-25T06:52:09.020Z,16.25
2023-10-25T06:54:37.043Z,15.68
2023-10-25T06:57:04.969Z,16.30
2023-10-25T06:59:33.070Z,16.33
2023-10-25T07:02:17.584Z,16.33
2023-10-25T07:04:49.001Z,15.77
2023-10-25T07:07:20.385Z,15.35
2023-10-25T07:09:48.498Z,15.45
2023-10-25T07:12:16.146Z,15.52
2023-10-25T07:14:44.575Z,15.07
2023-10-25T07:17:12.274Z,16.63
2023-10-25T07:19:43.173Z,15.93
2023-10-25T07:22:11.050Z,15.25
2023-10-25T07:24:38.886Z,14.73
2023-10-25T07:27:06.543Z,13.55
2023-10-25T07:29:37.881Z,14.27
2023-10-25T07:32:05.843Z,14.20
2023-10-25T07:34:33.705Z,13.68
2023-10-25T07:37:01.398Z,13.00
2023-10-25T07:39:29.433Z,12.27
2023-10-25T07:41:57.085Z,11.55
2023-10-25T07:44:24.924Z,12.32
2023-10-25T07:46:52.563Z,12.60
2023-10-25T07:49:20.588Z,13.00
2023-10-25T07:51:48.230Z,12.52
2023-10-25T07:54:16.232Z,12.00
2023-10-25T07:59:15.639Z,11.38
2023-10-25T08:01:44.267Z,10.23
2023-10-25T08:04:12.836Z,11.38
2023-10-25T08:06:40.554Z,9.52
2023-10-25T08:09:08.517Z,10.57
2023-10-25T08:11:38.005Z,9.95
2023-10-25T08:14:06.116Z,10.77
2023-10-25T08:16:34.379Z,10.27
2023-10-25T08:19:02.340Z,12.80
2023-10-25T08:21:29.933Z,11.20
2023-10-25T08:23:58.013Z,10.77
2023-10-25T08:26:28.499Z,10.10
2023-10-25T08:28:56.593Z,9.77
2023-10-25T08:31:24.722Z,9.68
2023-10-25T08:33:52.609Z,9.18
2023-10-25T08:36:20.237Z,8.73
2023-10-25T08:38:48.165Z,9.30
2023-10-25T08:41:17.755Z,9.25
2023-10-25T08:43:45.810Z,9.05
2023-10-25T08:46:15.214Z,8.82
2023-10-25T08:48:43.918Z,9.40
2023-10-25T08:51:11.616Z,8.90
2023-10-25T08:53:40.016Z,8.63
2023-10-25T08:56:07.742Z,9.00
2023-10-25T08:58:35.714Z,7.70
2023-10-25T09:01:03.807Z,8.35
2023-10-25T09:03:35.001Z,7.78
2023-10-25T09:06:06.384Z,7.88
2023-10-25T09:08:35.133Z,7.72
2023-10-25T09:11:08.150Z,8.10
2023-10-25T09:13:37.334Z,8.98
2023-10-25T09:16:05.857Z,8.18
2023-10-25T09:18:34.587Z,7.85
2023-10-25T09:21:11.402Z,9.20
2023-10-25T09:23:40.616Z,8.57
2023-10-25T09:26:19.387Z,11.38
2023-10-25T09:28:47.601Z,8.45
2023-10-25T09:31:27.296Z,9.20
2023-10-25T09:33:58.189Z,9.60
2023-10-25T09:36:27.919Z,9.00
2023-10-25T09:38:57.721Z,8.13
2023-10-25T09:41:28.197Z,6.93
2023-10-25T09:43:59.793Z,7.03
2023-10-25T09:46:29.799Z,6.97
2023-10-25T09:49:01.355Z,6.75
2023-10-25T09:51:57.434Z,6.70
2023-10-25T09:54:30.896Z,6.15
2023-10-25T09:56:59.333Z,6.20
2023-10-25T09:59:32.588Z,6.22
2023-10-25T10:02:01.695Z,6.10
2023-10-25T10:04:30.029Z,5.55
2023-10-25T10:07:11.305Z,5.60
2023-10-25T10:09:42.154Z,6.18
2023-10-25T10:12:11.289Z,6.38
2023-10-25T10:14:41.193Z,6.22
2023-10-25T10:17:11.893Z,6.10
2023-10-25T10:19:40.752Z,6.47
2023-10-25T10:22:09.708Z,6.65
2023-10-25T10:24:44.900Z,6.43
2023-10-25T10:27:13.709Z,7.03
2023-10-25T10:29:42.399Z,7.50
2023-10-25T10:32:10.367Z,7.93
2023-10-25T10:34:43.255Z,7.43
2023-10-25T10:37:15.149Z,7.10
2023-10-25T10:40:00.986Z,7.40
2023-10-25T10:42:37.345Z,6.88
2023-10-25T10:45:06.437Z,6.78
2023-10-25T10:47:36.439Z,7.15
2023-10-25T10:50:14.004Z,6.57
2023-10-25T10:52:42.564Z,7.47
2023-10-25T10:55:11.550Z,7.88
2023-10-25T10:57:42.135Z,9.52
2023-10-25T11:00:20.398Z,9.50
2023-10-25T11:02:49.393Z,9.55
2023-10-25T11:05:21.147Z,9.00
2023-10-25T11:07:49.629Z,9.88
2023-10-25T11:10:17.794Z,9.00
2023-10-25T11:12:45.853Z,8.55
2023-10-25T11:15:14.193Z,7.82
2023-10-25T11:17:42.203Z,7.68
2023-10-25T11:20:10.309Z,7.03
2023-10-25T11:22:38.034Z,7.47
2023-10-25T11:25:10.977Z,7.53
2023-10-25T11:27:39.021Z,7.53
2023-10-25T11:30:07.523Z,7.88
2023-10-25T11:32:35.316Z,7.18
2023-10-25T11:35:03.802Z,6.93
2023-10-25T11:37:50.702Z,5.68
2023-10-25T11:40:18.611Z,6.05
2023-10-25T11:42:46.380Z,6.13
2023-10-25T11:45:16.952Z,5.82
2023-10-25T11:47:49.323Z,5.65
2023-10-25T11:50:17.459Z,5.57
2023-10-25T11:52:45.026Z,5.40
2023-10-25T11:55:12.993Z,5.03
2023-10-25T11:57:40.818Z,3.95
2023-10-25T12:00:10.382Z,4.05
2023-10-25T12:02:41.010Z,3.83
2023-10-25T12:05:09.186Z,3.65
2023-10-25T12:07:36.813Z,4.07
2023-10-25T12:10:07.951Z,3.75
2023-10-25T12:12:36.062Z,3.15
2023-10-25T12:15:04.186Z,3.50
2023-10-25T12:17:31.947Z,3.45
2023-10-25T12:20:07.638Z,3.13
2023-10-25T12:22:42.217Z,3.38
2023-10-25T12:25:10.210Z,3.80
2023-10-25T12:27:37.929Z,3.38
2023-10-25T12:30:06.238Z,3.95
2023-10-25T12:32:33.919Z,3.75
2023-10-25T12:35:01.880Z,4.25
2023-10-25T12:37:30.768Z,4.28
2023-10-25T12:39:58.786Z,4.50
2023-10-25T12:42:26.458Z,4.07
2023-10-25T12:44:55.237Z,4.10
2023-10-25T12:47:23.676Z,4.10
2023-10-25T12:49:51.829Z,3.70
2023-10-25T12:52:19.792Z,3.70
2023-10-25T12:54:47.679Z,3.45
2023-10-25T12:57:15.208Z,3.42
2023-10-25T12:59:43.055Z,3.00
2023-10-25T13:02:10.636Z,2.60
2023-10-25T13:04:38.537Z,2.30
2023-10-25T13:07:07.079Z,3.10
2023-10-25T13:09:35.020Z,2.65
2023-10-25T13:12:02.849Z,2.85
2023-10-25T13:14:30.700Z,2.92
2023-10-25T13:17:08.721Z,3.47
2023-10-25T13:19:44.688Z,3.92
2023-10-25T13:22:12.273Z,3.28
2023-10-25T13:24:40.181Z,3.38
2023-10-25T13:27:07.947Z,3.13
2023-10-25T13:29:35.913Z,3.38
2023-10-25T13:32:03.665Z,3.35
2023-10-25T13:34:31.476Z,3.30
2023-10-25T13:36:59.051Z,3.22
2023-10-25T13:39:27.250Z,3.20
2023-10-25T13:41:54.842Z,3.00
2023-10-25T13:44:22.708Z,3.28
2023-10-25T13:46:50.363Z,4.03
2023-10-25T13:49:18.216Z,3.65
2023-10-25T13:51:46.479Z,3.33
2023-10-25T13:54:14.383Z,3.92
2023-10-25T13:56:41.992Z,5.32
2023-10-25T13:59:09.896Z,3.67
2023-10-25T14:01:37.507Z,3.33
2023-10-25T14:04:05.557Z,3.35
2023-10-25T14:06:33.278Z,3.63
2023-10-25T14:09:01.121Z,3.65
2023-10-25T14:11:29.020Z,3.20
2023-10-25T14:13:57.008Z,3.38
2023-10-25T14:16:24.547Z,3.45
2023-10-25T14:18:52.877Z,3.17
2023-10-25T14:21:20.574Z,3.85
2023-10-25T14:23:49.777Z,3.85
2023-10-25T14:26:17.528Z,3.80
2023-10-25T14:28:45.612Z,3.92
2023-10-25T14:31:16.793Z,4.03
2023-10-25T14:33:44.985Z,4.05
2023-10-25T14:36:13.591Z,4.30
2023-10-25T14:38:46.119Z,4.47
2023-10-25T14:41:14.169Z,4.50
2023-10-25T14:43:42.152Z,4.20
2023-10-25T14:46:13.418Z,4.78
2023-10-25T14:48:41.537Z,5.68
2023-10-25T14:51:16.004Z,6.47
2023-10-25T14:53:43.948Z,5.13
2023-10-25T14:56:11.606Z,6.10
2023-10-25T14:58:39.777Z,6.57
2023-10-25T15:01:08.835Z,6.55
2023-10-25T15:03:37.081Z,5.93
2023-10-25T15:06:04.864Z,5.97
2023-10-25T15:08:32.937Z,5.40
2023-10-25T15:11:06.945Z,5.38
2023-10-25T15:13:35.131Z,5.43
2023-10-25T15:16:03.822Z,4.57
2023-10-25T15:18:32.847Z,4.80
2023-10-25T15:21:00.694Z,4.82
2023-10-25T15:23:28.603Z,5.20
2023-10-25T15:26:05.780Z,4.80
2023-10-25T15:28:33.677Z,5.70
2023-10-25T15:31:03.405Z,5.78
2023-10-25T15:33:32.064Z,5.53
2023-10-25T15:36:00.079Z,5.38
2023-10-25T15:38:28.188Z,5.70
2023-10-25T15:41:14.369Z,5.80
2023-10-25T15:43:42.292Z,6.20
2023-10-25T15:46:09.988Z,6.25
2023-10-25T15:48:45.368Z,6.03
2023-10-25T15:51:16.622Z,5.80
2023-10-25T15:53:45.216Z,6.05
2023-10-25T15:56:16.951Z,6.82
2023-10-25T15:58:45.496Z,6.25
2023-10-25T16:01:20.171Z,6.75
2023-10-25T16:03:56.102Z,7.25
2023-10-25T16:06:23.788Z,6.20
2023-10-25T16:08:51.786Z,7.68
2023-10-25T16:11:20.489Z,7.57
2023-10-25T16:13:49.648Z,8.80
2023-10-25T16:16:17.453Z,7.55
2023-10-25T16:18:45.392Z,6.72
2023-10-25T16:21:13.781Z,6.60
2023-10-25T16:23:46.584Z,6.65
2023-10-25T16:26:14.719Z,7.30
2023-10-25T16:28:43.502Z,7.05
2023-10-25T16:31:12.293Z,7.85
2023-10-25T16:33:41.884Z,7.68
2023-10-25T16:36:10.650Z,6.95
2023-10-25T16:38:38.480Z,7.65
2023-10-25T16:41:07.776Z,8.07
2023-10-25T16:43:36.127Z,10.05
2023-10-25T16:46:12.188Z,14.85
2023-10-25T16:48:42.610Z,12.82
2023-10-25T16:51:13.724Z,8.52
2023-10-25T16:53:44.501Z,6.85
2023-10-25T16:56:13.118Z,7.43
2023-10-25T16:58:41.025Z,6.97
2023-10-25T17:01:09.538Z,6.53
2023-10-25T17:03:37.827Z,6.30
2023-10-25T17:08:28.818Z,7.00
2023-10-25T17:10:57.416Z,6.38
2023-10-25T17:13:30.788Z,6.05
2023-10-25T17:16:02.847Z,6.53
2023-10-25T17:18:33.103Z,8.38
2023-10-25T17:21:02.033Z,7.07
2023-10-25T17:23:29.730Z,6.22
2023-10-25T17:25:57.717Z,6.85
2023-10-25T17:28:26.014Z,6.80
2023-10-25T17:30:54.085Z,6.43
2023-10-25T17:33:22.052Z,7.10
2023-10-25T17:35:50.055Z,7.40
2023-10-25T17:38:19.165Z,6.57
2023-10-25T17:40:50.800Z,7.70
2023-10-25T17:43:18.983Z,8.13
2023-10-25T17:46:09.775Z,9.13
2023-10-25T17:48:38.825Z,8.63
2023-10-25T17:51:07.996Z,8.82
2023-10-25T17:53:36.246Z,9.82
2023-10-25T17:56:04.333Z,10.00
2023-10-25T17:58:32.420Z,10.50
2023-10-25T18:01:00.637Z,11.52
2023-10-25T18:03:28.991Z,10.70
2023-10-25T18:06:03.450Z,10.43
2023-10-25T18:11:00.229Z,12.68
2023-10-25T18:13:27.849Z,12.40
2023-10-25T18:15:55.850Z,11.07
2023-10-25T18:18:23.564Z,10.10
2023-10-25T18:20:53.920Z,10.75
2023-10-25T18:23:22.853Z,10.05
2023-10-25T18:25:50.849Z,9.63
2023-10-25T18:28:18.493Z,9.98
2023-10-25T18:31:57.441Z,10.23
2023-10-25T18:33:38.615Z,10.13
2023-10-25T18:36:10.130Z,10.93
2023-10-25T18:38:39.395Z,10.65
2023-10-25T18:41:07.950Z,10.95
2023-10-25T18:43:35.555Z,10.43
2023-10-25T18:46:06.072Z,10.15
2023-10-25T18:48:34.452Z,10.50
2023-10-25T18:51:14.174Z,10.70
2023-10-25T18:53:42.196Z,9.82
2023-10-25T18:56:10.151Z,9.80
2023-10-25T18:58:37.836Z,11.00
2023-10-25T19:01:31.816Z,10.80
2023-10-25T19:03:59.487Z,11.73
2023-10-25T19:06:34.822Z,11.20
2023-10-25T19:09:04.826Z,11.57
2023-10-25T19:11:33.163Z,11.38
2023-10-25T19:14:00.965Z,11.98
2023-10-25T19:16:28.893Z,12.38
2023-10-25T19:18:57.909Z,12.23
2023-10-25T19:21:30.822Z,11.73
2023-10-25T19:24:01.433Z,13.20
2023-10-25T19:26:47.763Z,12.73
2023-10-25T19:29:18.175Z,12.75
2023-10-25T19:31:46.361Z,12.02
2023-10-25T19:34:14.415Z,11.82
2023-10-25T19:36:45.010Z,12.15
2023-10-25T19:39:13.116Z,15.40
2023-10-25T19:41:41.066Z,17.92
2023-10-25T19:44:09.404Z,19.05
2023-10-25T19:46:37.580Z,19.02
2023-10-25T19:49:08.134Z,15.73
2023-10-25T19:51:36.153Z,16.67
2023-10-25T19:54:03.949Z,16.55
2023-10-25T19:56:32.712Z,14.23
2023-10-25T19:59:00.348Z,12.88
2023-10-25T20:01:28.201Z,14.07
2023-10-25T20:03:55.992Z,12.75
2023-10-25T20:06:23.949Z,13.48
2023-10-25T20:08:52.238Z,12.98
2023-10-25T20:11:20.243Z,11.60
2023-10-25T20:13:48.087Z,11.35
2023-10-25T20:16:16.044Z,13.00
2023-10-25T20:18:45.335Z,11.88
2023-10-25T20:21:13.396Z,12.15
2023-10-25T20:23:42.004Z,12.52
2023-10-25T20:26:21.604Z,12.65
2023-10-25T20:28:54.174Z,12.48
2023-10-25T20:31:22.282Z,13.63
2023-10-25T20:33:53.566Z,14.00
2023-10-25T20:36:21.652Z,14.80
2023-10-25T20:38:49.634Z,14.85
2023-10-25T20:41:17.868Z,15.63
2023-10-25T20:43:45.871Z,15.95
2023-10-25T20:48:33.551Z,15.10
2023-10-25T20:51:03.726Z,13.25
2023-10-25T20:53:32.042Z,13.63
2023-10-25T20:56:01.016Z,15.07
2023-10-25T20:58:29.083Z,15.75
2023-10-25T21:00:57.066Z,14.45
2023-10-25T21:03:24.802Z,14.25
2023-10-25T21:05:58.842Z,13.88
2023-10-25T21:08:26.459Z,16.02
2023-10-25T21:10:54.479Z,16.40
2023-10-25T21:13:22.042Z,16.77
2023-10-25T21:15:51.486Z,15.23
2023-10-25T21:18:19.388Z,16.95
2023-10-25T21:20:47.895Z,15.63
2023-10-25T21:23:15.773Z,17.42
2023-10-25T21:25:44.236Z,17.52
2023-10-25T21:28:12.162Z,18.77
2023-10-25T21:30:40.588Z,18.40
2023-10-25T21:33:09.247Z,18.05
2023-10-25T21:35:37.468Z,17.00
2023-10-25T21:38:05.123Z,17.58
2023-10-25T21:40:32.959Z,17.33
2023-10-25T21:43:00.602Z,18.20
2023-10-25T21:45:28.634Z,18.00
2023-10-25T21:47:57.210Z,18.63
2023-10-25T21:50:26.932Z,19.85
2023-10-25T21:52:54.500Z,18.63
2023-10-25T21:55:22.488Z,18.90
2023-10-25T21:59:47.359Z,18.55
2023-10-25T22:00:37.916Z,19.30
2023-10-25T22:03:05.857Z,19.45
2023-10-25T22:05:33.909Z,17.20
2023-10-25T22:08:01.515Z,18.00
2023-10-25T22:10:29.437Z,17.20
2023-10-25T22:12:57.055Z,18.30
2023-10-25T22:15:25.022Z,17.58
2023-10-25T22:17:52.667Z,17.65
2023-10-25T22:20:20.663Z,17.55
2023-10-25T22:22:48.245Z,17.05
2023-10-25T22:25:16.179Z,16.25
2023-10-25T22:27:43.758Z,16.95
2023-10-25T22:30:11.989Z,16.85
2023-10-25T22:32:39.950Z,16.85
2023-10-25T22:35:08.230Z,16.67
2023-10-25T22:37:35.792Z,17.25
2023-10-25T22:40:06.661Z,17.83
2023-10-25T22:42:34.246Z,19.27
2023-10-25T22:45:02.099Z,22.00
2023-10-25T22:47:29.740Z,21.42
2023-10-25T22:49:57.630Z,21.38
2023-10-25T22:52:25.252Z,15.05
2023-10-25T22:54:53.057Z,15.52
2023-10-25T22:57:20.779Z,14.82
2023-10-25T22:59:48.731Z,14.05
2023-10-25T23:02:16.436Z,14.30
2023-10-25T23:04:44.626Z,14.27
2023-10-25T23:07:12.348Z,14.75
2023-10-25T23:09:40.208Z,14.73
2023-10-25T23:12:08.041Z,15.18
2023-10-25T23:14:35.912Z,16.45
2023-10-25T23:17:03.525Z,16.15
2023-10-25T23:19:31.426Z,15.80
2023-10-25T23:21:59.091Z,15.68
2023-10-25T23:24:27.026Z,15.80
2023-10-25T23:26:59.290Z,16.50
2023-10-25T23:29:28.380Z,16.02
2023-10-25T23:31:55.934Z,15.50
2023-10-25T23:34:24.165Z,15.88
2023-10-25T23:36:51.882Z,17.50
2023-10-25T23:39:19.810Z,15.80
2023-10-25T23:41:47.651Z,16.30
2023-10-25T23:44:15.599Z,16.23
2023-10-25T23:46:43.159Z,17.55
2023-10-25T23:49:11.009Z,18.67
2023-10-25T23:51:38.712Z,18.38
2023-10-25T23:54:43.126Z,19.00
2023-10-25T23:56:54.165Z,20.65
2023-10-25T23:59:22.021Z,20.38
